createdAt,value
2018-02-01T00:00:57.915Z,992.24
2018-02-01T00:01:57.924Z,992.26
2018-02-01T00:02:57.942Z,992.32
2018-02-01T00:03:57.879Z,992.29
2018-02-01T00:04:57.884Z,992.30
2018-02-01T00:05:57.860Z,992.32
2018-02-01T00:06:57.858Z,992.34
2018-02-01T00:07:57.844Z,992.42
2018-02-01T00:08:57.847Z,992.40
2018-02-01T00:09:57.825Z,992.39
2018-02-01T00:10:57.813Z,992.41
2018-02-01T00:11:57.803Z,992.43
2018-02-01T00:12:57.800Z,992.41
2018-02-01T00:13:57.785Z,992.39
2018-02-01T00:14:57.775Z,992.39
2018-02-01T00:15:57.759Z,992.38
2018-02-01T00:16:57.758Z,992.36
2018-02-01T00:17:57.744Z,992.37
2018-02-01T00:18:57.729Z,992.32
2018-02-01T00:19:57.719Z,992.34
2018-02-01T00:20:57.708Z,992.31
2018-02-01T00:21:57.712Z,992.26
2018-02-01T00:22:57.689Z,992.31
2018-02-01T00:23:57.679Z,992.26
2018-02-01T00:24:57.669Z,992.26
2018-02-01T00:25:57.669Z,992.28
2018-02-01T00:26:57.659Z,992.27
2018-02-01T00:27:57.643Z,992.23
2018-02-01T00:28:57.628Z,992.20
2018-02-01T00:29:57.617Z,992.17
2018-02-01T00:30:57.608Z,992.19
2018-02-01T00:31:57.599Z,992.19
2018-02-01T00:32:57.580Z,992.25
2018-02-01T00:33:57.583Z,992.27
2018-02-01T00:34:57.583Z,992.24
2018-02-01T00:35:57.555Z,992.30
2018-02-01T00:36:57.567Z,992.29
2018-02-01T00:37:57.537Z,992.26
2018-02-01T00:38:57.522Z,992.22
2018-02-01T00:39:57.526Z,992.27
2018-02-01T00:40:57.507Z,992.23
2018-02-01T00:41:57.494Z,992.30
2018-02-01T00:42:57.477Z,992.27
2018-02-01T00:43:57.467Z,992.24
2018-02-01T00:44:57.459Z,992.22
2018-02-01T00:45:57.449Z,992.29
2018-02-01T00:46:57.445Z,992.25
2018-02-01T00:47:57.436Z,992.23
2018-02-01T00:48:57.432Z,992.30
2018-02-01T00:49:57.408Z,992.23
2018-02-01T00:50:57.405Z,992.32
2018-02-01T00:51:57.393Z,992.30
2018-02-01T00:52:57.382Z,992.32
2018-02-01T00:53:57.377Z,992.30
2018-02-01T00:54:57.364Z,992.28
2018-02-01T00:55:57.343Z,992.30
2018-02-01T00:56:57.345Z,992.34
2018-02-01T00:57:57.332Z,992.30
2018-02-01T00:58:57.317Z,992.35
2018-02-01T00:59:57.302Z,992.34
2018-02-01T01:00:57.293Z,992.35
2018-02-01T01:01:57.285Z,992.34
2018-02-01T01:02:57.276Z,992.38
2018-02-01T01:03:57.262Z,992.37
2018-02-01T01:04:57.247Z,992.36
2018-02-01T01:05:57.237Z,992.32
2018-02-01T01:06:57.231Z,992.36
2018-02-01T01:07:57.229Z,992.32
2018-02-01T01:08:57.213Z,992.32
2018-02-01T01:09:57.207Z,992.34
2018-02-01T01:10:57.187Z,992.31
2018-02-01T01:11:57.178Z,992.35
2018-02-01T01:12:57.167Z,992.33
2018-02-01T01:13:57.158Z,992.33
2018-02-01T01:14:57.165Z,992.33
2018-02-01T01:15:57.133Z,992.34
2018-02-01T01:16:57.130Z,992.30
2018-02-01T01:17:57.118Z,992.25
2018-02-01T01:18:57.112Z,992.29
2018-02-01T01:19:57.097Z,992.30
2018-02-01T01:20:57.115Z,992.31
2018-02-01T01:21:57.073Z,992.30
2018-02-01T01:22:57.067Z,992.34
2018-02-01T01:23:57.059Z,992.32
2018-02-01T01:24:57.049Z,992.35
2018-02-01T01:25:57.036Z,992.39
2018-02-01T01:26:57.024Z,992.36
2018-02-01T01:27:57.008Z,992.32
2018-02-01T01:28:57.002Z,992.43
2018-02-01T01:29:57.032Z,992.37
2018-02-01T01:30:56.979Z,992.36
2018-02-01T01:31:56.972Z,992.35
2018-02-01T01:32:56.954Z,992.30
2018-02-01T01:33:57.044Z,992.33
2018-02-01T01:34:56.939Z,992.35
2018-02-01T01:35:56.932Z,992.34
2018-02-01T01:36:56.914Z,992.39
2018-02-01T01:37:56.904Z,992.34
2018-02-01T01:38:56.897Z,992.31
2018-02-01T01:39:56.888Z,992.31
2018-02-01T01:40:56.875Z,992.32
2018-02-01T01:41:56.868Z,992.28
2018-02-01T01:42:56.862Z,992.26
2018-02-01T01:43:56.838Z,992.23
2018-02-01T01:44:56.833Z,992.21
2018-02-01T01:45:56.824Z,992.20
2018-02-01T01:46:56.811Z,992.21
2018-02-01T01:47:56.799Z,992.19
2018-02-01T01:48:56.786Z,992.20
2018-02-01T01:49:56.774Z,992.17
2018-02-01T01:50:56.769Z,992.17
2018-02-01T01:51:56.763Z,992.15
2018-02-01T01:52:56.742Z,992.15
2018-02-01T01:53:56.732Z,992.14
2018-02-01T01:54:56.726Z,992.11
2018-02-01T01:55:56.717Z,992.14
2018-02-01T01:56:56.708Z,992.09
2018-02-01T01:57:56.696Z,992.10
2018-02-01T01:58:56.684Z,992.17
2018-02-01T01:59:56.676Z,992.13
2018-02-01T02:00:56.662Z,992.14
2018-02-01T02:01:56.657Z,992.10
2018-02-01T02:02:56.638Z,992.14
2018-02-01T02:03:56.628Z,992.09
2018-02-01T02:04:56.619Z,992.11
2018-02-01T02:05:56.614Z,992.10
2018-02-01T02:06:56.607Z,992.10
2018-02-01T02:07:56.592Z,992.07
2018-02-01T02:08:56.580Z,992.08
2018-02-01T02:09:56.565Z,992.06
2018-02-01T02:10:56.559Z,992.13
2018-02-01T02:11:56.550Z,992.04
2018-02-01T02:12:56.540Z,992.06
2018-02-01T02:13:56.528Z,992.05
2018-02-01T02:14:56.522Z,992.07
2018-02-01T02:15:56.507Z,992.06
2018-02-01T02:16:56.496Z,992.05
2018-02-01T02:17:56.485Z,992.04
2018-02-01T02:18:56.471Z,991.98
2018-02-01T02:19:56.471Z,992.03
2018-02-01T02:20:56.451Z,991.99
2018-02-01T02:21:56.443Z,991.91
2018-02-01T02:22:56.432Z,991.93
2018-02-01T02:23:56.427Z,991.90
2018-02-01T02:24:56.405Z,991.92
2018-02-01T02:25:56.397Z,991.84
2018-02-01T02:26:56.391Z,991.90
2018-02-01T02:27:56.380Z,991.91
2018-02-01T02:28:56.375Z,991.90
2018-02-01T02:29:56.359Z,991.93
2018-02-01T02:30:56.356Z,991.90
2018-02-01T02:31:56.336Z,991.90
2018-02-01T02:32:56.326Z,991.90
2018-02-01T02:33:56.342Z,991.86
2018-02-01T02:34:56.305Z,991.83
2018-02-01T02:35:56.293Z,991.85
2018-02-01T02:36:56.283Z,991.84
2018-02-01T02:37:56.272Z,991.74
2018-02-01T02:38:56.270Z,991.75
2018-02-01T02:39:56.256Z,991.78
2018-02-01T02:40:56.245Z,991.75
2018-02-01T02:41:56.234Z,991.81
2018-02-01T02:42:56.225Z,991.78
2018-02-01T02:43:56.214Z,991.75
2018-02-01T02:44:56.196Z,991.71
2018-02-01T02:45:56.187Z,991.71
2018-02-01T02:46:56.187Z,991.69
2018-02-01T02:47:56.171Z,991.73
2018-02-01T02:48:56.157Z,991.73
2018-02-01T02:49:56.151Z,991.80
2018-02-01T02:50:56.143Z,991.74
2018-02-01T02:51:56.136Z,991.77
2018-02-01T02:52:56.124Z,991.83
2018-02-01T02:53:56.110Z,991.80
2018-02-01T02:54:56.099Z,991.77
2018-02-01T02:55:56.084Z,991.78
2018-02-01T02:56:56.075Z,991.72
2018-02-01T02:57:56.066Z,991.67
2018-02-01T02:58:56.051Z,991.73
2018-02-01T02:59:56.041Z,991.70
2018-02-01T03:00:56.139Z,991.70
2018-02-01T03:01:56.021Z,991.72
2018-02-01T03:02:56.015Z,991.70
2018-02-01T03:03:56.006Z,991.69
2018-02-01T03:04:55.987Z,991.65
2018-02-01T03:05:55.977Z,991.64
2018-02-01T03:06:55.976Z,991.66
2018-02-01T03:07:55.964Z,991.66
2018-02-01T03:08:55.954Z,991.68
2018-02-01T03:09:55.945Z,991.64
2018-02-01T03:10:55.927Z,991.64
2018-02-01T03:11:55.920Z,991.64
2018-02-01T03:12:55.911Z,991.64
2018-02-01T03:13:55.899Z,991.67
2018-02-01T03:14:55.888Z,991.66
2018-02-01T03:15:55.874Z,991.68
2018-02-01T03:16:55.862Z,991.64
2018-02-01T03:17:55.857Z,991.68
2018-02-01T03:18:55.845Z,991.69
2018-02-01T03:19:55.834Z,991.72
2018-02-01T03:20:55.826Z,991.71
2018-02-01T03:21:55.812Z,991.67
2018-02-01T03:22:55.804Z,991.76
2018-02-01T03:23:55.794Z,991.77
2018-02-01T03:24:55.785Z,991.76
2018-02-01T03:25:55.772Z,991.75
2018-02-01T03:26:55.760Z,991.75
2018-02-01T03:27:55.752Z,991.76
2018-02-01T03:28:55.744Z,991.73
2018-02-01T03:29:55.729Z,991.77
2018-02-01T03:30:55.715Z,991.74
2018-02-01T03:31:55.704Z,991.79
2018-02-01T03:32:55.731Z,991.80
2018-02-01T03:33:55.686Z,991.74
2018-02-01T03:34:55.680Z,991.74
2018-02-01T03:35:55.671Z,991.82
2018-02-01T03:36:55.652Z,991.79
2018-02-01T03:37:55.642Z,991.78
2018-02-01T03:38:55.636Z,991.86
2018-02-01T03:39:55.676Z,991.79
2018-02-01T03:40:55.625Z,991.79
2018-02-01T03:41:55.623Z,991.84
2018-02-01T03:42:55.597Z,991.76
2018-02-01T03:43:55.586Z,991.81
2018-02-01T03:44:55.573Z,991.82
2018-02-01T03:45:55.862Z,991.85
2018-02-01T03:46:55.564Z,991.85
2018-02-01T03:47:55.537Z,991.87
2018-02-01T03:48:55.534Z,991.87
2018-02-01T03:49:55.519Z,991.92
2018-02-01T03:50:55.515Z,991.94
2018-02-01T03:51:55.503Z,991.94
2018-02-01T03:52:55.488Z,991.94
2018-02-01T03:53:55.473Z,991.90
2018-02-01T03:54:55.468Z,991.89
2018-02-01T03:55:55.465Z,991.89
2018-02-01T03:56:55.449Z,991.90
2018-02-01T03:57:55.443Z,991.87
2018-02-01T03:58:55.424Z,991.87
2018-02-01T03:59:55.415Z,991.88
2018-02-01T04:00:55.410Z,991.90
2018-02-01T04:01:55.402Z,991.87
2018-02-01T04:02:55.381Z,991.90
2018-02-01T04:03:55.372Z,991.84
2018-02-01T04:04:55.359Z,991.85
2018-02-01T04:05:55.354Z,991.84
2018-02-01T04:06:55.343Z,991.87
2018-02-01T04:07:55.331Z,991.84
2018-02-01T04:08:55.319Z,991.86
2018-02-01T04:09:55.309Z,991.84
2018-02-01T04:10:55.302Z,991.84
2018-02-01T04:11:55.303Z,991.82
2018-02-01T04:12:55.278Z,991.84
2018-02-01T04:13:55.273Z,991.83
2018-02-01T04:14:55.257Z,991.83
2018-02-01T04:15:55.343Z,991.86
2018-02-01T04:16:55.242Z,991.87
2018-02-01T04:17:55.225Z,991.87
2018-02-01T04:18:55.217Z,991.84
2018-02-01T04:19:55.200Z,991.84
2018-02-01T04:20:55.194Z,991.88
2018-02-01T04:21:55.180Z,991.85
2018-02-01T04:22:55.174Z,991.81
2018-02-01T04:23:55.197Z,991.81
2018-02-01T04:24:55.147Z,991.79
2018-02-01T04:25:55.139Z,991.78
2018-02-01T04:26:55.132Z,991.82
2018-02-01T04:27:55.119Z,991.81
2018-02-01T04:28:55.114Z,991.79
2018-02-01T04:29:55.105Z,991.78
2018-02-01T04:30:55.086Z,991.79
2018-02-01T04:31:55.076Z,991.80
2018-02-01T04:32:55.069Z,991.79
2018-02-01T04:33:55.162Z,991.80
2018-02-01T04:34:55.045Z,991.80
2018-02-01T04:35:55.038Z,991.81
2018-02-01T04:36:55.022Z,991.78
2018-02-01T04:37:55.013Z,991.78
2018-02-01T04:38:55.009Z,991.78
2018-02-01T04:39:54.993Z,991.79
2018-02-01T04:40:54.978Z,991.70
2018-02-01T04:41:54.968Z,991.70
2018-02-01T04:42:54.963Z,991.72
2018-02-01T04:43:54.957Z,991.68
2018-02-01T04:44:54.946Z,991.67
2018-02-01T04:45:54.929Z,991.78
2018-02-01T04:46:54.920Z,991.72
2018-02-01T04:47:54.908Z,991.75
2018-02-01T04:48:54.915Z,991.73
2018-02-01T04:49:54.883Z,991.76
2018-02-01T04:50:54.882Z,991.69
2018-02-01T04:51:54.869Z,991.72
2018-02-01T04:52:54.857Z,991.72
2018-02-01T04:53:54.846Z,991.71
2018-02-01T04:54:54.832Z,991.72
2018-02-01T04:55:54.820Z,991.66
2018-02-01T04:56:54.816Z,991.70
2018-02-01T04:57:54.809Z,991.73
2018-02-01T04:58:54.787Z,991.71
2018-02-01T04:59:54.775Z,991.75
2018-02-01T05:00:54.766Z,991.71
2018-02-01T05:01:54.755Z,991.77
2018-02-01T05:02:54.750Z,991.79
2018-02-01T05:03:54.758Z,991.78
2018-02-01T05:04:54.729Z,991.77
2018-02-01T05:05:54.712Z,991.79
2018-02-01T05:06:54.710Z,991.76
2018-02-01T05:07:54.712Z,991.82
2018-02-01T05:08:54.687Z,991.82
2018-02-01T05:09:54.672Z,991.87
2018-02-01T05:10:54.666Z,991.91
2018-02-01T05:11:54.656Z,991.86
2018-02-01T05:12:54.654Z,991.87
2018-02-01T05:13:54.631Z,991.86
2018-02-01T05:14:54.617Z,991.86
2018-02-01T05:15:54.604Z,991.88
2018-02-01T05:16:54.591Z,991.85
2018-02-01T05:17:54.584Z,991.84
2018-02-01T05:18:54.580Z,991.84
2018-02-01T05:19:54.567Z,991.81
2018-02-01T05:20:54.552Z,991.82
2018-02-01T05:21:54.544Z,991.86
2018-02-01T05:22:54.536Z,991.79
2018-02-01T05:23:54.521Z,991.75
2018-02-01T05:24:54.514Z,991.76
2018-02-01T05:25:54.502Z,991.77
2018-02-01T05:26:54.490Z,991.81
2018-02-01T05:27:54.483Z,991.81
2018-02-01T05:28:54.470Z,991.77
2018-02-01T05:29:54.461Z,991.75
2018-02-01T05:30:54.444Z,991.72
2018-02-01T05:31:54.437Z,991.79
2018-02-01T05:32:54.420Z,991.78
2018-02-01T05:33:54.418Z,991.79
2018-02-01T05:34:54.404Z,991.78
2018-02-01T05:35:54.397Z,991.78
2018-02-01T05:36:54.378Z,991.80
2018-02-01T05:37:54.368Z,991.81
2018-02-01T05:38:54.361Z,991.81
2018-02-01T05:39:54.352Z,991.76
2018-02-01T05:40:54.341Z,991.73
2018-02-01T05:41:54.326Z,991.76
2018-02-01T05:42:54.316Z,991.75
2018-02-01T05:43:54.302Z,991.80
2018-02-01T05:44:54.296Z,991.79
2018-02-01T05:45:54.286Z,991.81
2018-02-01T05:46:54.271Z,991.79
2018-02-01T05:47:54.263Z,991.82
2018-02-01T05:48:54.246Z,991.81
2018-02-01T05:49:54.236Z,991.78
2018-02-01T05:50:54.233Z,991.78
2018-02-01T05:51:54.220Z,991.82
2018-02-01T05:52:54.237Z,991.85
2018-02-01T05:53:54.194Z,991.75
2018-02-01T05:54:54.189Z,991.74
2018-02-01T05:55:54.177Z,991.79
2018-02-01T05:56:54.169Z,991.82
2018-02-01T05:57:54.154Z,991.80
2018-02-01T05:58:54.138Z,991.80
2018-02-01T05:59:54.135Z,991.77
2018-02-01T06:00:54.127Z,991.74
2018-02-01T06:01:54.114Z,991.84
2018-02-01T06:02:54.102Z,991.83
2018-02-01T06:03:54.189Z,991.80
2018-02-01T06:04:54.073Z,991.82
2018-02-01T06:05:54.064Z,991.77
2018-02-01T06:06:54.060Z,991.74
2018-02-01T06:07:54.046Z,991.73
2018-02-01T06:08:54.034Z,991.73
2018-02-01T06:09:54.020Z,991.72
2018-02-01T06:10:54.017Z,991.71
2018-02-01T06:11:54.009Z,991.68
2018-02-01T06:12:53.997Z,991.69
2018-02-01T06:13:53.985Z,991.72
2018-02-01T06:14:53.968Z,991.69
2018-02-01T06:15:53.959Z,991.74
2018-02-01T06:16:53.947Z,991.78
2018-02-01T06:17:53.943Z,991.83
2018-02-01T06:18:53.932Z,991.85
2018-02-01T06:19:53.911Z,991.89
2018-02-01T06:20:53.916Z,991.91
2018-02-01T06:21:53.894Z,991.86
2018-02-01T06:22:53.890Z,991.88
2018-02-01T06:23:53.875Z,991.89
2018-02-01T06:24:53.911Z,991.87
2018-02-01T06:25:53.853Z,991.89
2018-02-01T06:26:53.844Z,991.85
2018-02-01T06:27:53.830Z,991.90
2018-02-01T06:28:53.818Z,991.86
2018-02-01T06:29:53.807Z,991.85
2018-02-01T06:30:53.796Z,991.86
2018-02-01T06:31:53.804Z,991.83
2018-02-01T06:32:53.780Z,991.83
2018-02-01T06:33:53.766Z,991.89
2018-02-01T06:34:53.751Z,991.86
2018-02-01T06:35:53.740Z,991.84
2018-02-01T06:36:53.744Z,991.85
2018-02-01T06:37:53.722Z,991.86
2018-02-01T06:38:53.718Z,991.88
2018-02-01T06:39:53.705Z,991.87
2018-02-01T06:40:53.684Z,991.89
2018-02-01T06:41:53.678Z,991.82
2018-02-01T06:42:53.668Z,991.83
2018-02-01T06:43:53.657Z,991.85
2018-02-01T06:44:53.647Z,991.88
2018-02-01T06:45:53.638Z,991.82
2018-02-01T06:46:53.622Z,991.82
2018-02-01T06:47:53.614Z,991.82
2018-02-01T06:48:53.609Z,991.83
2018-02-01T06:49:53.592Z,991.82
2018-02-01T06:50:53.578Z,991.80
2018-02-01T06:51:53.572Z,991.79
2018-02-01T06:52:53.560Z,991.80
2018-02-01T06:53:53.547Z,991.80
2018-02-01T06:54:53.541Z,991.75
2018-02-01T06:55:53.532Z,991.81
2018-02-01T06:56:53.514Z,991.77
2018-02-01T06:57:53.506Z,991.73
2018-02-01T06:58:53.495Z,991.81
2018-02-01T06:59:53.486Z,991.78
2018-02-01T07:00:53.475Z,991.76
2018-02-01T07:01:53.465Z,991.76
2018-02-01T07:02:53.451Z,991.76
2018-02-01T07:03:53.439Z,991.77
2018-02-01T07:04:53.430Z,991.77
2018-02-01T07:05:53.420Z,991.80
2018-02-01T07:06:53.405Z,991.84
2018-02-01T07:07:53.394Z,991.83
2018-02-01T07:08:53.386Z,991.81
2018-02-01T07:09:53.628Z,991.78
2018-02-01T07:10:53.367Z,991.80
2018-02-01T07:11:53.357Z,991.73
2018-02-01T07:12:53.342Z,991.77
2018-02-01T07:13:53.334Z,991.82
2018-02-01T07:14:53.323Z,991.84
2018-02-01T07:15:53.618Z,991.84
2018-02-01T07:16:53.299Z,991.82
2018-02-01T07:17:53.293Z,991.82
2018-02-01T07:18:53.275Z,991.83
2018-02-01T07:19:53.268Z,991.83
2018-02-01T07:20:53.258Z,991.87
2018-02-01T07:21:53.251Z,991.89
2018-02-01T07:22:53.232Z,991.93
2018-02-01T07:23:53.223Z,991.92
2018-02-01T07:24:53.215Z,991.96
2018-02-01T07:25:53.202Z,992.00
2018-02-01T07:26:53.193Z,991.99
2018-02-01T07:27:53.255Z,992.01
2018-02-01T07:28:53.174Z,992.01
2018-02-01T07:29:53.160Z,992.04
2018-02-01T07:30:53.149Z,991.99
2018-02-01T07:31:53.184Z,992.01
2018-02-01T07:32:53.132Z,992.00
2018-02-01T07:33:53.120Z,992.05
2018-02-01T07:34:53.103Z,991.96
2018-02-01T07:35:53.094Z,992.01
2018-02-01T07:36:53.089Z,992.01
2018-02-01T07:37:53.072Z,992.04
2018-02-01T07:38:53.058Z,992.07
2018-02-01T07:39:53.047Z,991.97
2018-02-01T07:40:53.038Z,992.03
2018-02-01T07:41:53.028Z,992.08
2018-02-01T07:42:53.021Z,992.07
2018-02-01T07:43:53.013Z,992.10
2018-02-01T07:44:52.994Z,992.08
2018-02-01T07:45:52.985Z,992.11
2018-02-01T07:46:52.982Z,992.04
2018-02-01T07:47:52.968Z,992.05
2018-02-01T07:48:52.955Z,992.08
2018-02-01T07:49:52.945Z,992.03
2018-02-01T07:50:52.928Z,992.06
2018-02-01T07:51:52.919Z,992.05
2018-02-01T07:52:52.915Z,992.04
2018-02-01T07:53:52.904Z,992.08
2018-02-01T07:54:52.889Z,992.02
2018-02-01T07:55:52.886Z,992.01
2018-02-01T07:56:52.868Z,992.06
2018-02-01T07:57:52.855Z,992.07
2018-02-01T07:58:52.849Z,992.01
2018-02-01T07:59:52.939Z,992.04
2018-02-01T08:00:52.828Z,992.00
2018-02-01T08:01:52.814Z,992.02
2018-02-01T08:02:52.808Z,992.03
2018-02-01T08:03:53.098Z,991.98
2018-02-01T08:04:52.783Z,992.00
2018-02-01T08:05:52.773Z,991.94
2018-02-01T08:06:52.757Z,991.94
2018-02-01T08:07:52.754Z,991.96
2018-02-01T08:08:52.747Z,991.95
2018-02-01T08:09:53.134Z,991.93
2018-02-01T08:10:52.718Z,991.96
2018-02-01T08:11:52.714Z,991.97
2018-02-01T08:12:52.694Z,991.95
2018-02-01T08:13:52.690Z,992.00
2018-02-01T08:14:52.681Z,992.00
2018-02-01T08:15:52.973Z,992.00
2018-02-01T08:16:52.682Z,992.01
2018-02-01T08:17:52.642Z,992.01
2018-02-01T08:18:52.643Z,992.04
2018-02-01T08:19:52.625Z,992.07
2018-02-01T08:20:52.614Z,992.02
2018-02-01T08:21:52.605Z,992.07
2018-02-01T08:22:52.590Z,992.06
2018-02-01T08:23:52.580Z,992.09
2018-02-01T08:24:52.574Z,992.09
2018-02-01T08:25:52.567Z,992.08
2018-02-01T08:26:52.555Z,992.10
2018-02-01T08:27:52.543Z,992.12
2018-02-01T08:28:52.526Z,992.09
2018-02-01T08:29:52.528Z,992.08
2018-02-01T08:30:52.515Z,992.09
2018-02-01T08:31:52.502Z,992.13
2018-02-01T08:32:52.485Z,992.06
2018-02-01T08:33:52.479Z,992.09
2018-02-01T08:34:52.470Z,992.15
2018-02-01T08:35:52.461Z,992.00
2018-02-01T08:36:52.447Z,992.13
2018-02-01T08:37:52.438Z,992.07
2018-02-01T08:38:52.424Z,992.13
2018-02-01T08:39:52.718Z,992.12
2018-02-01T08:40:52.410Z,992.08
2018-02-01T08:41:52.403Z,992.08
2018-02-01T08:42:52.384Z,992.07
2018-02-01T08:43:52.374Z,992.06
2018-02-01T08:44:52.361Z,992.10
2018-02-01T08:45:52.755Z,992.10
2018-02-01T08:46:52.344Z,992.14
2018-02-01T08:47:52.336Z,992.09
2018-02-01T08:48:52.334Z,992.10
2018-02-01T08:49:52.311Z,992.15
2018-02-01T08:50:52.305Z,992.14
2018-02-01T08:51:52.550Z,992.25
2018-02-01T08:52:52.287Z,992.21
2018-02-01T08:53:52.281Z,992.21
2018-02-01T08:54:52.263Z,992.27
2018-02-01T08:55:52.252Z,992.26
2018-02-01T08:56:52.249Z,992.28
2018-02-01T08:57:52.234Z,992.23
2018-02-01T08:58:52.226Z,992.23
2018-02-01T08:59:52.212Z,992.28
2018-02-01T09:00:52.204Z,992.31
2018-02-01T09:01:52.192Z,992.32
2018-02-01T09:02:52.190Z,992.29
2018-02-01T09:03:52.181Z,992.29
2018-02-01T09:04:52.166Z,992.36
2018-02-01T09:05:52.159Z,992.37
2018-02-01T09:06:52.145Z,992.37
2018-02-01T09:07:52.137Z,992.39
2018-02-01T09:08:52.134Z,992.36
2018-02-01T09:09:52.114Z,992.39
2018-02-01T09:10:52.107Z,992.33
2018-02-01T09:11:52.096Z,992.29
2018-02-01T09:12:52.085Z,992.30
2018-02-01T09:13:52.074Z,992.25
2018-02-01T09:14:52.069Z,992.25
2018-02-01T09:15:52.359Z,992.25
2018-02-01T09:16:52.049Z,992.28
2018-02-01T09:17:52.042Z,992.25
2018-02-01T09:18:52.032Z,992.27
2018-02-01T09:19:52.019Z,992.18
2018-02-01T09:20:52.010Z,992.24
2018-02-01T09:21:52.000Z,992.25
2018-02-01T09:22:51.990Z,992.25
2018-02-01T09:23:51.983Z,992.22
2018-02-01T09:24:51.985Z,992.22
2018-02-01T09:25:51.960Z,992.18
2018-02-01T09:26:51.955Z,992.18
2018-02-01T09:27:51.953Z,992.13
2018-02-01T09:28:51.946Z,992.11
2018-02-01T09:29:51.930Z,992.13
2018-02-01T09:30:51.941Z,992.16
2018-02-01T09:31:51.912Z,992.15
2018-02-01T09:32:51.910Z,992.13
2018-02-01T09:33:51.894Z,992.10
2018-02-01T09:34:51.877Z,992.24
2018-02-01T09:35:51.871Z,992.15
2018-02-01T09:36:51.862Z,992.18
2018-02-01T09:37:51.854Z,992.20
2018-02-01T09:38:51.839Z,992.22
2018-02-01T09:39:52.132Z,992.26
2018-02-01T09:40:51.840Z,992.25
2018-02-01T09:41:51.811Z,992.22
2018-02-01T09:42:51.810Z,992.25
2018-02-01T09:43:51.796Z,992.14
2018-02-01T09:44:51.787Z,992.09
2018-02-01T09:45:51.776Z,992.15
2018-02-01T09:46:51.776Z,992.15
2018-02-01T09:47:51.763Z,992.12
2018-02-01T09:48:51.752Z,992.15
2018-02-01T09:49:51.744Z,992.15
2018-02-01T09:50:51.742Z,992.18
2018-02-01T09:51:51.726Z,992.27
2018-02-01T09:52:51.716Z,992.24
2018-02-01T09:53:51.708Z,992.28
2018-02-01T09:54:51.700Z,992.26
2018-02-01T09:55:51.692Z,992.26
2018-02-01T09:56:51.684Z,992.31
2018-02-01T09:57:51.672Z,992.29
2018-02-01T09:58:51.666Z,992.30
2018-02-01T09:59:51.657Z,992.29
2018-02-01T10:00:51.647Z,992.33
2018-02-01T10:01:51.634Z,992.23
2018-02-01T10:02:51.633Z,992.20
2018-02-01T10:03:51.621Z,992.27
2018-02-01T10:04:51.614Z,992.23
2018-02-01T10:05:51.606Z,992.19
2018-02-01T10:06:51.592Z,992.25
2018-02-01T10:07:51.585Z,992.32
2018-02-01T10:08:51.576Z,992.28
2018-02-01T10:09:51.874Z,992.27
2018-02-01T10:10:51.560Z,992.39
2018-02-01T10:11:51.546Z,992.31
2018-02-01T10:12:51.543Z,992.24
2018-02-01T10:13:51.532Z,992.35
2018-02-01T10:14:51.527Z,992.29
2018-02-01T10:15:51.520Z,992.29
2018-02-01T10:16:51.502Z,992.31
2018-02-01T10:17:51.495Z,992.29
2018-02-01T10:18:51.490Z,992.19
2018-02-01T10:19:51.538Z,992.26
2018-02-01T10:20:51.475Z,992.27
2018-02-01T10:21:51.467Z,992.24
2018-02-01T10:22:51.457Z,992.24
2018-02-01T10:23:51.447Z,992.29
2018-02-01T10:24:51.440Z,992.29
2018-02-01T10:25:51.433Z,992.26
2018-02-01T10:26:51.426Z,992.29
2018-02-01T10:27:51.412Z,992.29
2018-02-01T10:28:51.400Z,992.35
2018-02-01T10:29:51.398Z,992.24
2018-02-01T10:30:51.392Z,992.30
2018-02-01T10:31:51.387Z,992.30
2018-02-01T10:32:51.620Z,992.22
2018-02-01T10:33:51.363Z,992.27
2018-02-01T10:34:51.359Z,992.27
2018-02-01T10:35:51.389Z,992.25
2018-02-01T10:36:51.343Z,992.29
2018-02-01T10:37:51.337Z,992.18
2018-02-01T10:38:51.569Z,992.26
2018-02-01T10:39:51.313Z,992.22
2018-02-01T10:40:51.312Z,992.14
2018-02-01T10:41:51.298Z,992.30
2018-02-01T10:42:51.293Z,992.35
2018-02-01T10:43:51.282Z,992.22
2018-02-01T10:44:51.273Z,992.26
2018-02-01T10:45:51.264Z,992.25
2018-02-01T10:46:51.260Z,992.26
2018-02-01T10:47:51.254Z,992.22
2018-02-01T10:48:51.240Z,992.27
2018-02-01T10:49:51.233Z,992.22
2018-02-01T10:50:51.231Z,992.31
2018-02-01T10:51:51.285Z,992.26
2018-02-01T10:52:51.212Z,992.25
2018-02-01T10:53:51.202Z,992.21
2018-02-01T10:54:51.195Z,992.27
2018-02-01T10:55:51.186Z,992.29
2018-02-01T10:56:51.178Z,992.25
2018-02-01T10:57:51.170Z,992.30
2018-02-01T10:58:51.157Z,992.22
2018-02-01T10:59:51.156Z,992.24
2018-02-01T11:00:51.138Z,992.28
2018-02-01T11:01:51.134Z,992.21
2018-02-01T11:02:51.427Z,992.18
2018-02-01T11:03:51.122Z,992.22
2018-02-01T11:04:51.106Z,992.15
2018-02-01T11:05:51.103Z,992.18
2018-02-01T11:06:51.101Z,992.19
2018-02-01T11:07:51.091Z,992.20
2018-02-01T11:08:51.332Z,992.22
2018-02-01T11:09:51.068Z,992.20
2018-02-01T11:10:51.057Z,992.26
2018-02-01T11:11:51.050Z,992.27
2018-02-01T11:12:51.037Z,992.25
2018-02-01T11:13:51.049Z,992.28
2018-02-01T11:14:51.040Z,992.29
2018-02-01T11:15:51.016Z,992.33
2018-02-01T11:16:51.012Z,992.29
2018-02-01T11:17:51.002Z,992.33
2018-02-01T11:18:51.002Z,992.31
2018-02-01T11:19:50.979Z,992.21
2018-02-01T11:20:50.972Z,992.35
2018-02-01T11:21:50.962Z,992.30
2018-02-01T11:22:50.956Z,992.34
2018-02-01T11:23:50.949Z,992.32
2018-02-01T11:24:50.934Z,992.27
2018-02-01T11:25:50.924Z,992.29
2018-02-01T11:26:50.926Z,992.33
2018-02-01T11:27:50.910Z,992.28
2018-02-01T11:28:50.901Z,992.28
2018-02-01T11:29:50.890Z,992.28
2018-02-01T11:30:50.886Z,992.19
2018-02-01T11:31:50.875Z,992.20
2018-02-01T11:32:50.864Z,992.21
2018-02-01T11:33:50.854Z,992.13
2018-02-01T11:34:50.846Z,992.23
2018-02-01T11:35:50.839Z,992.27
2018-02-01T11:36:50.830Z,992.27
2018-02-01T11:37:51.231Z,992.28
2018-02-01T11:38:50.808Z,992.30
2018-02-01T11:39:50.802Z,992.21
2018-02-01T11:40:50.790Z,992.31
2018-02-01T11:41:50.783Z,992.29
2018-02-01T11:42:50.777Z,992.29
2018-02-01T11:43:51.015Z,992.16
2018-02-01T11:44:50.789Z,992.12
2018-02-01T11:45:50.742Z,992.22
2018-02-01T11:46:50.736Z,992.27
2018-02-01T11:47:50.737Z,992.27
2018-02-01T11:48:50.722Z,992.29
2018-02-01T11:49:51.015Z,992.26
2018-02-01T11:50:50.698Z,992.27
2018-02-01T11:51:50.694Z,992.26
2018-02-01T11:52:50.688Z,992.25
2018-02-01T11:53:50.746Z,992.21
2018-02-01T11:54:50.666Z,992.24
2018-02-01T11:55:50.654Z,992.24
2018-02-01T11:56:50.645Z,992.18
2018-02-01T11:57:50.634Z,992.22
2018-02-01T11:58:50.628Z,992.23
2018-02-01T11:59:50.620Z,992.23
2018-02-01T12:00:50.606Z,992.20
2018-02-01T12:01:50.602Z,992.20
2018-02-01T12:02:50.595Z,992.17
2018-02-01T12:03:50.586Z,992.17
2018-02-01T12:04:50.576Z,992.15
2018-02-01T12:05:50.564Z,992.17
2018-02-01T12:06:50.549Z,992.16
2018-02-01T12:07:50.540Z,992.19
2018-02-01T12:08:50.581Z,992.12
2018-02-01T12:09:50.527Z,992.16
2018-02-01T12:10:50.515Z,992.21
2018-02-01T12:11:50.507Z,992.13
2018-02-01T12:12:50.538Z,992.09
2018-02-01T12:13:50.484Z,992.15
2018-02-01T12:14:50.486Z,992.16
2018-02-01T12:15:50.474Z,992.15
2018-02-01T12:16:50.458Z,992.12
2018-02-01T12:17:50.448Z,992.20
2018-02-01T12:18:50.446Z,992.04
2018-02-01T12:19:50.739Z,992.02
2018-02-01T12:20:50.424Z,991.96
2018-02-01T12:21:50.414Z,991.99
2018-02-01T12:22:50.411Z,992.03
2018-02-01T12:23:50.392Z,992.04
2018-02-01T12:24:50.389Z,992.02
2018-02-01T12:25:50.635Z,992.05
2018-02-01T12:26:50.370Z,992.03
2018-02-01T12:27:50.361Z,992.08
2018-02-01T12:28:50.357Z,992.08